Time;durP1;ratioP1;P1;durP2;ratioP2;P2;SDS_P1;SDS_P2;PMS_P1;PMS_P2;Temp;Humidity;BMP_temperature;BMP_pressure;BME280_temperature;BME280_humidity;BME280_pressure;Samples;Min_cycle;Max_cycle;Signal;HPM_P1;HPM_P2
2022/02/02 00:02:36;;;;;;;34.80;15.05;;;;;;;;;;5016557;28;20030;-73
2022/02/02 00:05:17;;;;;;;39.60;16.80;;;;;;;;;;4970456;28;20066;-74
2022/02/02 00:07:51;;;;;;;40.40;15.77;;;;;;;;;;5394661;23;20057;-72
2022/02/02 00:10:48;;;;;;;43.42;20.63;;;;;;;;;;5054789;28;20057;-73
2022/02/02 00:13:10;;;;;;;44.20;22.23;;;;;;;;;;5036099;28;20036;-74
2022/02/02 00:23:18;;;;;;;31.05;15.15;;;;;;;;;;5042742;28;20101;-73
2022/02/02 00:25:52;;;;;;;29.90;15.50;;;;;;;;;;5024323;28;20056;-73
2022/02/02 00:28:43;;;;;;;35.20;16.27;;;;;;;;;;5034734;28;20181;-73
2022/02/02 00:31:15;;;;;;;29.10;16.85;;;;;;;;;;5459523;23;20038;-72
2022/02/02 00:33:46;;;;;;;36.00;19.10;;;;;;;;;;5015273;28;20030;-72
2022/02/02 00:36:26;;;;;;;42.15;22.13;;;;;;;;;;5015255;28;20014;-73
2022/02/02 00:39:12;;;;;;;54.42;26.25;;;;;;;;;;4995022;28;20094;-73
2022/02/02 00:41:58;;;;;;;43.40;22.08;;;;;;;;;;5190288;23;20057;-73
2022/02/02 00:44:25;;;;;;;32.92;18.73;;;;;;;;;;5016304;28;20033;-72
2022/02/02 00:46:52;;;;;;;33.15;16.17;;;;;;;;;;4993408;28;20042;-73
2022/02/02 00:49:18;;;;;;;26.80;13.90;;;;;;;;;;4997825;28;20062;-77
2022/02/02 00:51:49;;;;;;;27.73;13.95;;;;;;;;;;4993082;28;20045;-73
2022/02/02 00:54:17;;;;;;;30.42;13.73;;;;;;;;;;5013485;28;20019;-74
2022/02/02 00:56:59;;;;;;;27.77;13.80;;;;;;;;;;4994570;28;20025;-73
2022/02/02 00:59:41;;;;;;;31.98;15.48;;;;;;;;;;5013902;28;20033;-73
2022/02/02 01:02:15;;;;;;;29.73;14.80;;;;;;;;;;4991354;28;20091;-73
2022/02/02 01:10:33;;;;;;;39.13;18.10;;;;;;;;;;4976151;28;20032;-73
2022/02/02 01:20:55;;;;;;;35.95;14.18;;;;;;;;;;4981312;28;20041;-74
2022/02/02 01:28:38;;;;;;;50.83;20.83;;;;;;;;;;4993488;28;20064;-74
2022/02/02 01:31:05;;;;;;;55.45;23.90;;;;;;;;;;5028778;28;20039;-74
2022/02/02 01:33:31;;;;;;;46.83;21.48;;;;;;;;;;5017844;28;20066;-73
2022/02/02 01:35:58;;;;;;;41.45;19.73;;;;;;;;;;4999687;28;20015;-73
2022/02/02 01:38:27;;;;;;;38.33;17.63;;;;;;;;;;5005201;28;20017;-73
2022/02/02 01:40:58;;;;;;;39.10;17.02;;;;;;;;;;5005623;28;20023;-74
2022/02/02 01:43:32;;;;;;;34.13;15.43;;;;;;;;;;4996801;28;20019;-75
2022/02/02 01:46:03;;;;;;;37.72;17.65;;;;;;;;;;4980511;28;20028;-74
2022/02/02 01:54:28;;;;;;;21.98;11.27;;;;;;;;;;4964280;29;20032;-73
2022/02/02 01:56:54;;;;;;;20.30;10.32;;;;;;;;;;4961443;28;20015;-73
2022/02/02 01:59:41;;;;;;;21.30;10.02;;;;;;;;;;4958801;28;20104;-72
2022/02/02 02:02:08;;;;;;;22.17;10.98;;;;;;;;;;4954425;29;20016;-73
2022/02/02 02:04:34;;;;;;;20.35;10.82;;;;;;;;;;4935838;29;20494;-73
2022/02/02 02:07:05;;;;;;;19.13;10.60;;;;;;;;;;4938408;29;20024;-73
2022/02/02 02:09:31;;;;;;;17.17;8.20;;;;;;;;;;4946541;29;20043;-72
2022/02/02 02:12:17;;;;;;;17.80;8.40;;;;;;;;;;4956949;29;20095;-74
2022/02/02 02:14:56;;;;;;;14.40;7.43;;;;;;;;;;4958511;29;20055;-74
2022/02/02 02:17:25;;;;;;;16.33;8.02;;;;;;;;;;4944813;28;20054;-73
2022/02/02 02:19:51;;;;;;;14.93;6.80;;;;;;;;;;4959317;28;20020;-73
2022/02/02 02:22:42;;;;;;;13.13;6.55;;;;;;;;;;4951981;29;20071;-73
2022/02/02 02:25:18;;;;;;;12.38;6.45;;;;;;;;;;4955650;28;20059;-73
2022/02/02 02:27:44;;;;;;;14.35;6.95;;;;;;;;;;4973645;29;20019;-73
2022/02/02 02:30:46;;;;;;;14.40;6.57;;;;;;;;;;4978891;28;20047;-73
2022/02/02 04:00:39;;;;;;;22.55;9.32;;;;;;;;;;4931029;29;20041;-73
2022/02/02 04:05:53;;;;;;;16.17;7.45;;;;;;;;;;5085348;23;20057;-74
2022/02/02 04:08:38;;;;;;;12.38;6.80;;;;;;;;;;4991993;28;20015;-74
2022/02/02 04:11:15;;;;;;;16.55;8.15;;;;;;;;;;4997082;28;20043;-75
2022/02/02 05:09:13;;;;;;;16.83;8.10;;;;;;;;;;5011052;28;20073;-78
2022/02/02 05:12:19;;;;;;;18.00;8.23;;;;;;;;;;5017039;28;20034;-76
2022/02/02 05:17:48;;;;;;;23.83;11.68;;;;;;;;;;5013578;28;20041;-77
2022/02/02 05:20:43;;;;;;;28.40;14.50;;;;;;;;;;4995458;28;20042;-74
2022/02/02 05:53:30;;;;;;;28.35;7.15;;;;;;;;;;5194722;23;20066;-76
2022/02/02 05:56:03;;;;;;;26.52;6.93;;;;;;;;;;4992169;28;20030;-80
2022/02/02 06:06:31;;;;;;;13.70;6.22;;;;;;;;;;4508945;26;20057;-78
2022/02/02 06:08:59;;;;;;;14.75;7.28;;;;;;;;;;4977844;28;20984;-75
2022/02/02 06:11:27;;;;;;;18.52;7.85;;;;;;;;;;4978792;28;20034;-74
2022/02/02 06:13:59;;;;;;;25.88;11.25;;;;;;;;;;4996244;28;20114;-76
2022/02/02 06:16:29;;;;;;;22.48;10.82;;;;;;;;;;5004079;28;20046;-75
2022/02/02 06:18:58;;;;;;;27.80;11.82;;;;;;;;;;5007296;28;20013;-75
2022/02/02 06:21:31;;;;;;;25.20;11.27;;;;;;;;;;4976098;28;20021;-74
2022/02/02 06:23:59;;;;;;;16.20;9.60;;;;;;;;;;4984407;28;20038;-75
2022/02/02 06:26:27;;;;;;;28.40;12.82;;;;;;;;;;4990392;28;20048;-75
2022/02/02 06:28:58;;;;;;;39.20;17.08;;;;;;;;;;4992752;28;20772;-76
2022/02/02 06:31:26;;;;;;;36.55;15.55;;;;;;;;;;4988565;28;20048;-73
2022/02/02 06:34:01;;;;;;;42.28;19.85;;;;;;;;;;4995251;28;20116;-75
2022/02/02 06:36:35;;;;;;;42.92;19.90;;;;;;;;;;4986925;28;20054;-75
2022/02/02 06:39:03;;;;;;;28.83;12.40;;;;;;;;;;5001645;28;20026;-75
2022/02/02 06:41:35;;;;;;;20.80;12.55;;;;;;;;;;5004663;28;20307;-73
2022/02/02 06:44:01;;;;;;;22.73;13.13;;;;;;;;;;4985528;28;20050;-77
2022/02/02 06:46:31;;;;;;;25.40;13.50;;;;;;;;;;5005896;28;20007;-74
2022/02/02 06:48:57;;;;;;;22.08;12.80;;;;;;;;;;4983277;28;20847;-79
2022/02/02 06:51:50;;;;;;;24.33;14.10;;;;;;;;;;4984438;28;20069;-75
2022/02/02 06:54:40;;;;;;;21.42;11.82;;;;;;;;;;5004564;28;20022;-75
2022/02/02 06:57:16;;;;;;;22.30;11.50;;;;;;;;;;4997571;28;20022;-73
2022/02/02 06:59:54;;;;;;;21.25;11.45;;;;;;;;;;4993485;28;20041;-75
2022/02/02 07:07:58;;;;;;;22.58;11.30;;;;;;;;;;4974524;28;20039;-79
2022/02/02 07:10:42;;;;;;;24.27;13.00;;;;;;;;;;4983426;28;20067;-77
2022/02/02 07:14:06;;;;;;;24.20;12.57;;;;;;;;;;4984246;28;20050;-76
2022/02/02 07:16:26;;;;;;;26.67;13.60;;;;;;;;;;4975362;28;20019;-77
2022/02/02 07:27:38;;;;;;;13.85;8.00;;;;;;;;;;4988402;28;20058;-78
2022/02/02 07:30:28;;;;;;;10.75;7.15;;;;;;;;;;4943194;28;20099;-79
2022/02/02 07:33:09;;;;;;;14.68;7.60;;;;;;;;;;4947414;29;20031;-77
2022/02/02 07:36:04;;;;;;;12.30;6.93;;;;;;;;;;4952871;29;20059;-78
2022/02/02 07:38:39;;;;;;;12.18;7.15;;;;;;;;;;4911879;28;20058;-77
2022/02/02 07:41:06;;;;;;;68.53;43.38;;;;;;;;;;4919347;29;20073;-77
2022/02/02 07:43:36;;;;;;;40.65;29.58;;;;;;;;;;4927758;28;20037;-78
2022/02/02 07:46:04;;;;;;;67.57;45.25;;;;;;;;;;4927998;28;20125;-77
2022/02/02 07:48:33;;;;;;;41.78;26.58;;;;;;;;;;4903529;29;20195;-75
2022/02/02 07:50:59;;;;;;;28.17;17.25;;;;;;;;;;4940603;29;20878;-75
2022/02/02 07:53:36;;;;;;;26.92;12.95;;;;;;;;;;4920363;28;20046;-81
2022/02/02 07:56:12;;;;;;;25.35;15.27;;;;;;;;;;4906730;29;20058;-77
2022/02/02 07:59:14;;;;;;;39.15;19.23;;;;;;;;;;4929263;28;20062;-78
2022/02/02 08:01:42;;;;;;;20.45;8.90;;;;;;;;;;4937484;28;20051;-73
2022/02/02 08:04:08;;;;;;;23.13;10.15;;;;;;;;;;4930294;28;20101;-78
2022/02/02 08:06:37;;;;;;;17.52;9.05;;;;;;;;;;4940081;28;20098;-78
2022/02/02 08:09:04;;;;;;;20.63;11.35;;;;;;;;;;4939929;28;20033;-77
2022/02/02 08:11:33;;;;;;;18.02;10.07;;;;;;;;;;4945526;28;20058;-76
2022/02/02 08:14:01;;;;;;;26.83;14.48;;;;;;;;;;4938507;28;20142;-77
2022/02/02 08:16:29;;;;;;;26.20;13.20;;;;;;;;;;4942887;28;20046;-79
2022/02/02 08:19:04;;;;;;;37.63;12.20;;;;;;;;;;4973290;28;20034;-78
2022/02/02 08:21:30;;;;;;;;;;;;;;;;;;4961008;28;20015;-76
2022/02/02 08:23:59;;;;;;;38.20;16.80;;;;;;;;;;4953844;28;20239;-74
2022/02/02 08:26:28;;;;;;;30.10;18.25;;;;;;;;;;4982165;28;20022;-77
2022/02/02 08:28:57;;;;;;;28.20;15.75;;;;;;;;;;4976792;28;20027;-77
2022/02/02 08:31:26;;;;;;;20.45;13.05;;;;;;;;;;4950282;28;20027;-75
2022/02/02 08:33:56;;;;;;;26.15;15.75;;;;;;;;;;4974259;28;20356;-78
2022/02/02 08:36:23;;;;;;;14.52;10.07;;;;;;;;;;4959132;28;20038;-77
2022/02/02 08:41:30;;;;;;;22.50;11.25;;;;;;;;;;4965812;28;20865;-76
2022/02/02 08:44:11;;;;;;;16.65;11.90;;;;;;;;;;4970363;28;20138;-79
2022/02/02 08:46:41;;;;;;;27.63;13.52;;;;;;;;;;4944172;28;20027;-77
2022/02/02 08:49:11;;;;;;;16.95;11.48;;;;;;;;;;4953833;28;20030;-79
2022/02/02 08:51:44;;;;;;;22.33;13.35;;;;;;;;;;4985004;28;20836;-78
2022/02/02 09:02:05;;;;;;;27.38;15.43;;;;;;;;;;4975374;28;20085;-76
2022/02/02 09:07:16;;;;;;;35.10;14.15;;;;;;;;;;4967079;28;20050;-77
2022/02/02 09:36:23;;;;;;;19.15;10.20;;;;;;;;;;4978318;28;20030;-75
2022/02/02 09:38:53;;;;;;;28.00;14.88;;;;;;;;;;4969549;29;20012;-75
2022/02/02 09:41:42;;;;;;;22.58;16.30;;;;;;;;;;4977841;28;20026;-76
2022/02/02 09:44:14;;;;;;;27.27;18.20;;;;;;;;;;4991055;28;20005;-76
2022/02/02 09:46:50;;;;;;;25.63;14.98;;;;;;;;;;4970248;28;20027;-74
2022/02/02 09:52:12;;;;;;;23.35;14.05;;;;;;;;;;4966735;28;20066;-75
2022/02/02 09:55:00;;;;;;;15.30;9.05;;;;;;;;;;4985119;28;20023;-74
2022/02/02 10:05:45;;;;;;;14.27;7.40;;;;;;;;;;4995535;28;20042;-75
2022/02/02 10:11:16;;;;;;;12.60;6.72;;;;;;;;;;4980409;28;20040;-77
2022/02/02 10:14:15;;;;;;;11.55;7.10;;;;;;;;;;4977372;28;20023;-76
2022/02/02 10:16:49;;;;;;;11.32;6.93;;;;;;;;;;4952596;28;20039;-79
2022/02/02 10:19:20;;;;;;;12.98;7.57;;;;;;;;;;4989793;28;20031;-80
2022/02/02 10:22:21;;;;;;;14.52;8.75;;;;;;;;;;4983760;28;20011;-74
2022/02/02 10:25:02;;;;;;;13.52;8.07;;;;;;;;;;4989598;28;20027;-75
2022/02/02 10:27:56;;;;;;;12.02;8.23;;;;;;;;;;4993949;28;20822;-77
2022/02/02 10:30:26;;;;;;;13.25;8.70;;;;;;;;;;4983319;28;20027;-75
2022/02/02 10:32:53;;;;;;;13.70;8.90;;;;;;;;;;4990005;28;20301;-77
2022/02/02 10:35:35;;;;;;;13.00;8.25;;;;;;;;;;4969200;29;20015;-77
2022/02/02 10:38:10;;;;;;;15.32;9.00;;;;;;;;;;4957453;28;20030;-78
2022/02/02 10:43:50;;;;;;;20.70;9.43;;;;;;;;;;4926717;29;20080;-79
2022/02/02 10:49:26;;;;;;;15.20;9.40;;;;;;;;;;4904768;29;20893;-78
2022/02/02 10:52:00;;;;;;;;;;;;;;;;;;4909348;29;20054;-78
2022/02/02 10:54:42;;;;;;;15.63;9.23;;;;;;;;;;4913819;29;19907;-77
2022/02/02 11:00:25;;;;;;;23.27;11.68;;;;;;;;;;4915995;29;20051;-78
2022/02/02 11:08:22;;;;;;;28.50;16.65;;;;;;;;;;4911368;29;20039;-77
2022/02/02 11:10:50;;;;;;;21.98;12.35;;;;;;;;;;4933044;29;20087;-75
2022/02/02 11:13:42;;;;;;;19.08;11.18;;;;;;;;;;4916418;29;20028;-77
2022/02/02 11:16:14;;;;;;;17.30;9.88;;;;;;;;;;4891195;29;20040;-76
2022/02/02 11:18:45;;;;;;;17.42;10.93;;;;;;;;;;4860952;29;20036;-73
2022/02/02 11:21:20;;;;;;;17.60;10.82;;;;;;;;;;4878179;29;20028;-75
2022/02/02 11:23:52;;;;;;;28.42;19.35;;;;;;;;;;4915624;29;20020;-75
2022/02/02 11:26:48;;;;;;;19.55;12.93;;;;;;;;;;4947210;28;20019;-76
2022/02/02 11:29:33;;;;;;;29.58;21.45;;;;;;;;;;4976069;28;20125;-77
2022/02/02 11:32:05;;;;;;;21.83;15.75;;;;;;;;;;4968063;28;20047;-77
2022/02/02 11:34:40;;;;;;;23.50;11.90;;;;;;;;;;4983652;28;20011;-75
2022/02/02 11:37:15;;;;;;;15.20;9.60;;;;;;;;;;4974033;28;20037;-73
2022/02/02 11:40:07;;;;;;;16.33;9.68;;;;;;;;;;4986706;28;20034;-77
2022/02/02 11:46:04;;;;;;;16.73;9.80;;;;;;;;;;4983086;28;20050;-73
2022/02/02 11:48:51;;;;;;;14.52;8.90;;;;;;;;;;4988304;28;20107;-75
2022/02/02 11:51:36;;;;;;;15.18;9.02;;;;;;;;;;4989079;28;20014;-72
2022/02/02 11:54:02;;;;;;;14.38;9.23;;;;;;;;;;4990965;28;20050;-76
2022/02/02 11:56:30;;;;;;;14.90;9.77;;;;;;;;;;4990549;28;20053;-75
2022/02/02 11:58:57;;;;;;;19.00;11.25;;;;;;;;;;4992120;28;20117;-75
2022/02/02 12:01:44;;;;;;;15.00;10.32;;;;;;;;;;4980135;28;20039;-74
2022/02/02 12:04:26;;;;;;;14.73;9.38;;;;;;;;;;4975991;28;20006;-74
2022/02/02 12:07:04;;;;;;;16.60;9.55;;;;;;;;;;4968586;28;20045;-77
2022/02/02 12:09:58;;;;;;;22.48;12.00;;;;;;;;;;4973869;28;20039;-77
2022/02/02 12:48:41;;;;;;;24.02;8.70;;;;;;;;;;4976025;28;20042;-74
2022/02/02 12:54:20;;;;;;;18.15;9.38;;;;;;;;;;4989284;28;20062;-76
2022/02/02 12:56:40;;;;;;;13.27;8.32;;;;;;;;;;4977310;28;20042;-75
2022/02/02 12:59:38;;;;;;;13.65;8.32;;;;;;;;;;4987854;28;20519;-75
2022/02/02 13:02:07;;;;;;;15.43;7.93;;;;;;;;;;4984771;28;20082;-77
2022/02/02 13:04:34;;;;;;;14.48;7.78;;;;;;;;;;4994948;28;20095;-76
2022/02/02 13:07:15;;;;;;;16.73;8.95;;;;;;;;;;4989989;28;20034;-75
2022/02/02 13:09:42;;;;;;;15.00;7.85;;;;;;;;;;4984897;28;20401;-75
2022/02/02 13:12:54;;;;;;;17.58;8.30;;;;;;;;;;4975855;28;20528;-75
2022/02/02 13:21:22;;;;;;;16.52;7.50;;;;;;;;;;4975265;28;20038;-74
2022/02/02 13:26:06;;;;;;;14.32;7.70;;;;;;;;;;4974629;28;20035;-78
2022/02/02 13:28:41;;;;;;;15.25;9.65;;;;;;;;;;4988235;28;20070;-78
2022/02/02 13:31:33;;;;;;;12.32;8.18;;;;;;;;;;4991419;28;20087;-74
2022/02/02 13:45:35;;;;;;;13.95;8.68;;;;;;;;;;4990844;28;20050;-75
2022/02/02 13:48:44;;;;;;;11.63;8.00;;;;;;;;;;4984306;28;20054;-75
2022/02/02 13:57:13;;;;;;;21.10;9.45;;;;;;;;;;4897679;29;20399;-75
2022/02/02 13:59:59;;;;;;;16.42;10.57;;;;;;;;;;4903277;29;20036;-76
2022/02/02 14:05:56;;;;;;;16.13;8.80;;;;;;;;;;4856111;29;20030;-75
2022/02/02 14:32:43;;;;;;;41.15;23.17;;;;;;;;;;4874193;29;20048;-76
2022/02/02 14:35:13;;;;;;;34.28;20.88;;;;;;;;;;4916350;29;20047;-76
2022/02/02 14:37:42;;;;;;;32.42;20.30;;;;;;;;;;4916007;29;20158;-75
2022/02/02 14:40:25;;;;;;;16.70;10.27;;;;;;;;;;4913574;29;20123;-78
2022/02/02 14:43:00;;;;;;;16.02;9.45;;;;;;;;;;4955172;29;20043;-77
2022/02/02 14:45:34;;;;;;;17.05;10.32;;;;;;;;;;4963990;29;20011;-75
2022/02/02 15:29:46;;;;;;;20.90;10.63;;;;;;;;;;4922786;29;20039;-78
2022/02/02 15:32:12;;;;;;;18.50;10.25;;;;;;;;;;4908994;29;20036;-75
2022/02/02 15:34:43;;;;;;;26.08;16.35;;;;;;;;;;4926110;29;20072;-77
2022/02/02 15:40:18;;;;;;;21.17;13.13;;;;;;;;;;4926667;29;20132;-76
2022/02/02 15:42:52;;;;;;;18.02;11.02;;;;;;;;;;4916356;29;20048;-77
2022/02/02 15:58:53;;;;;;;13.25;7.03;;;;;;;;;;4948398;28;20039;-74
2022/02/02 16:04:12;;;;;;;12.32;5.97;;;;;;;;;;5029152;23;20070;-76
2022/02/02 16:06:41;;;;;;;14.55;5.88;;;;;;;;;;4955542;28;20129;-76
2022/02/02 16:12:12;;;;;;;27.92;15.15;;;;;;;;;;4964161;28;20536;-77
2022/02/02 16:14:49;;;;;;;11.90;6.97;;;;;;;;;;4957981;29;20026;-78
2022/02/02 16:37:23;;;;;;;15.50;10.32;;;;;;;;;;4917834;29;20471;-75
2022/02/02 16:39:57;;;;;;;12.80;8.60;;;;;;;;;;4899034;29;20091;-75
2022/02/02 16:45:07;;;;;;;16.88;10.18;;;;;;;;;;4916806;29;20043;-75
2022/02/02 16:47:34;;;;;;;14.13;9.23;;;;;;;;;;4900254;29;20483;-74
2022/02/02 16:50:00;;;;;;;16.05;9.00;;;;;;;;;;4915929;29;20422;-75
2022/02/02 16:52:31;;;;;;;16.30;9.18;;;;;;;;;;4901516;29;20526;-76
2022/02/02 16:55:01;;;;;;;21.98;15.25;;;;;;;;;;4901115;29;20534;-75
2022/02/02 17:26:55;;;;;;;20.30;11.95;;;153.60;2252.80;;;;;;4967159;28;20090;-76
2022/02/02 17:30:54;;;;;;;17.50;11.30;;;128.80;2252.80;;;;;;4960875;28;20039;-76
2022/02/02 17:36:11;;;;;;;18.85;10.55;;;;;;;;;;4955779;29;20042;-75
2022/02/02 17:44:16;;;;;;;20.90;12.20;;;;;;;;;;4958968;28;20034;-76
2022/02/02 18:20:50;;;;;;;9.45;5.68;;;;;;;;;;4876667;29;20146;-76
2022/02/02 18:23:28;;;;;;;16.20;9.20;;;;;;;;;;4885671;29;20067;-78
2022/02/02 18:26:13;;;;;;;15.80;8.23;;;;;;;;;;4875041;29;20080;-79
2022/02/02 18:31:56;;;;;;;13.60;7.03;;;;;;;;;;4876419;29;20052;-78
2022/02/02 18:34:38;;;;;;;9.85;5.65;;;;;;;;;;4868979;29;20080;-78
2022/02/02 18:46:48;;;;;;;11.48;6.07;;;;;;;;;;4806924;29;20046;-74
2022/02/02 18:51:57;;;;;;;10.35;5.47;;;;;;;;;;4807932;29;20049;-76
2022/02/02 19:14:37;;;;;;;12.48;6.88;;;;;;;;;;4806176;29;20058;-73
2022/02/02 19:39:11;;;;;;;13.18;7.22;;;;;;;;;;4958914;29;20098;-75
2022/02/02 19:53:03;;;;;;;11.55;5.88;;;;;;;;;;4957185;29;20086;-75
2022/02/02 19:55:54;;;;;;;12.02;6.60;;;;;;;;;;4969853;28;20077;-78
2022/02/02 20:09:24;;;;;;;9.63;5.70;;;;;;;;;;4960339;29;20086;-77
2022/02/02 20:11:51;;;;;;;11.38;5.95;;;;;;;;;;4960388;28;20031;-77
2022/02/02 20:14:17;;;;;;;11.23;6.03;;;;;;;;;;4958179;28;20047;-77
2022/02/02 20:16:45;;;;;;;8.98;5.00;;;;;;;;;;4961836;28;20055;-77
2022/02/02 20:19:14;;;;;;;10.82;5.43;;;;;;;;;;4959396;29;20362;-76
2022/02/02 20:21:50;;;;;;;7.75;4.70;;;;;;;;;;4962398;28;20027;-77
2022/02/02 20:24:20;;;;;;;7.63;4.90;;;;;;;;;;4944209;29;20038;-79
2022/02/02 20:26:51;;;;;;;9.90;4.47;;;;;;;;;;4963029;28;20054;-78
2022/02/02 20:29:17;;;;;;;8.68;4.50;;;;;;;;;;4963925;29;20023;-78
2022/02/02 20:31:44;;;;;;;10.65;4.40;;;;;;;;;;4957779;29;20477;-77
2022/02/02 20:34:10;;;;;;;7.88;4.22;;;;;;;;;;4957138;29;20040;-75
2022/02/02 20:36:39;;;;;;;10.68;4.78;;;;;;;;;;4963152;28;20488;-77
2022/02/02 20:39:11;;;;;;;7.70;4.55;;;;;;;;;;4945163;29;20054;-77
2022/02/02 20:41:39;;;;;;;7.68;4.80;;;;;;;;;;4964755;28;20023;-78
2022/02/02 20:44:16;;;;;;;9.50;5.05;;;;;;;;;;4947369;29;20042;-77
2022/02/02 21:05:54;;;;;;;18.65;10.30;;;;;;;;;;4962246;29;20055;-77
2022/02/02 21:08:42;;;;;;;14.70;9.48;;;;;;;;;;4959824;28;20461;-77
2022/02/02 21:11:17;;;;;;;13.25;7.57;;;;;;;;;;4960578;29;20031;-77
2022/02/02 21:13:51;;;;;;;12.27;6.57;;;;;;;;;;4960462;29;20043;-75
2022/02/02 21:16:27;;;;;;;;;;;;;;;;;;4963632;28;20492;-78
2022/02/02 21:19:04;;;;;;;8.13;4.93;;;;;;;;;;4945310;29;19912;-75
2022/02/02 21:21:45;;;;;;;12.43;5.72;;;;;;;;;;4945780;29;20067;-78
2022/02/02 21:29:35;;;;;;;9.55;5.22;;;;;;;;;;4961322;28;20038;-77
2022/02/02 21:32:01;;;;;;;9.20;5.07;;;;;;;;;;4960378;29;20481;-75
2022/02/02 21:34:27;;;;;;;9.00;4.95;;;;;;;;;;4960783;28;20496;-77
2022/02/02 21:37:01;;;;;;;9.07;4.95;;;;;;;;;;4964211;28;20536;-78
2022/02/02 21:39:29;;;;;;;11.63;5.30;;;;;;;;;;4962206;29;20032;-77
2022/02/02 21:41:59;;;;;;;12.43;6.13;;;;;;;;;;4962268;29;20019;-78
2022/02/02 21:44:25;;;;;;;10.85;5.90;;;;;;;;;;4946075;29;20027;-77
2022/02/02 21:46:53;;;;;;;11.43;5.20;;;;;;;;;;4961224;29;20024;-77
2022/02/02 21:49:21;;;;;;;10.90;5.35;;;;;;;;;;4960430;28;20037;-78
2022/02/02 21:52:21;;;;;;;11.77;7.00;;;;;;;;;;4961709;28;20015;-77
2022/02/02 21:54:40;;;;;;;10.60;5.68;;;;;;;;;;4938495;29;20425;-75
2022/02/02 21:57:06;;;;;;;9.38;5.10;;;;;;;;;;4952631;29;20102;-75
2022/02/02 21:59:33;;;;;;;8.20;4.68;;;;;;;;;;4959415;28;20410;-77
2022/02/02 22:02:00;;;;;;;7.85;4.80;;;;;;;;;;4959778;28;20027;-77
2022/02/02 22:04:26;;;;;;;10.43;4.90;;;;;;;;;;4959007;28;20070;-76
2022/02/02 22:06:54;;;;;;;10.88;5.20;;;;;;;;;;4960707;29;20407;-74
2022/02/02 22:09:22;;;;;;;7.95;4.72;;;;;;;;;;4948440;29;20437;-77
2022/02/02 22:11:49;;;;;;;8.90;5.13;;;;;;;;;;4943232;29;20114;-75
2022/02/02 22:14:19;;;;;;;9.50;5.50;;;;;;;;;;4968980;28;20058;-77
2022/02/02 22:16:48;;;;;;;10.95;4.75;;;;;;;;;;4945675;29;20020;-77
2022/02/02 22:19:14;;;;;;;7.85;4.53;;;;;;;;;;4960284;29;20081;-75
2022/02/02 22:21:40;;;;;;;9.18;4.72;;;;;;;;;;4943291;29;20386;-78
2022/02/02 22:24:06;;;;;;;10.55;4.63;;;;;;;;;;4946605;29;20493;-77
2022/02/02 22:26:34;;;;;;;8.50;4.78;;;;;;;;;;4961909;29;20022;-77
2022/02/02 22:29:00;;;;;;;9.90;5.10;;;;;;;;;;4960487;28;20027;-77
2022/02/02 22:31:26;;;;;;;9.30;5.10;;;;;;;;;;4960732;28;20159;-77
2022/02/02 22:33:52;;;;;;;9.07;4.80;;;;;;;;;;4947218;29;20416;-77
2022/02/02 22:36:19;;;;;;;11.32;5.43;;;;;;;;;;4961954;28;20032;-78
2022/02/02 22:38:48;;;;;;;10.90;5.10;;;;;;;;;;4960316;29;20119;-78
2022/02/02 22:41:14;;;;;;;12.25;5.18;;;;;;;;;;4961054;28;20057;-78
2022/02/02 22:43:47;;;;;;;10.65;5.63;;;;;;;;;;4949705;28;20035;-78
2022/02/02 22:46:13;;;;;;;13.05;5.43;;;;;;;;;;4942927;29;20030;-77
2022/02/02 22:48:42;;;;;;;9.88;5.20;;;;;;;;;;4966281;28;20038;-77
2022/02/02 22:51:12;;;;;;;10.80;5.60;;;;;;;;;;4948864;29;20222;-78
2022/02/02 22:53:39;;;;;;;10.90;5.30;;;;;;;;;;4941364;29;20485;-77
2022/02/02 22:56:08;;;;;;;9.65;5.93;;;;;;;;;;4962197;29;20024;-78
2022/02/02 22:58:34;;;;;;;14.20;6.05;;;;;;;;;;4943613;28;20033;-76
2022/02/02 23:01:02;;;;;;;13.73;9.52;;;;;;;;;;4958390;28;20059;-76
2022/02/02 23:03:30;;;;;;;11.35;7.35;;;;;;;;;;4958771;28;20023;-74
2022/02/02 23:06:00;;;;;;;15.50;11.88;;;;;;;;;;4942033;29;20047;-77
2022/02/02 23:08:28;;;;;;;17.15;7.95;;;;;;;;;;4942465;29;20384;-77
2022/02/02 23:10:55;;;;;;;12.60;9.10;;;;;;;;;;4941915;29;20477;-75
2022/02/02 23:13:21;;;;;;;9.75;5.88;;;;;;;;;;4958402;29;20130;-77
2022/02/02 23:20:40;;;;;;;11.68;5.50;;;;;;;;;;4960086;29;20101;-76
2022/02/02 23:23:07;;;;;;;15.95;5.78;;;;;;;;;;4959538;29;20477;-78
2022/02/02 23:25:36;;;;;;;10.18;5.10;;;;;;;;;;4944766;29;20039;-78
2022/02/02 23:28:04;;;;;;;10.23;4.47;;;;;;;;;;4959845;28;20477;-78
2022/02/02 23:30:33;;;;;;;12.60;5.22;;;;;;;;;;4961230;29;20055;-77
2022/02/02 23:33:02;;;;;;;11.65;5.32;;;;;;;;;;4952159;29;20047;-75
2022/02/02 23:35:29;;;;;;;12.70;4.80;;;;;;;;;;4959478;29;20046;-77
2022/02/02 23:37:55;;;;;;;9.98;4.38;;;;;;;;;;4958842;29;20031;-78
2022/02/02 23:40:21;;;;;;;11.02;4.28;;;;;;;;;;4943253;29;20063;-76
2022/02/02 23:42:47;;;;;;;10.35;4.53;;;;;;;;;;4963441;29;20503;-78
2022/02/02 23:45:14;;;;;;;13.65;6.30;;;;;;;;;;4958045;29;20031;-77
2022/02/02 23:47:50;;;;;;;19.33;10.20;;;;;;;;;;4942390;29;20063;-78
2022/02/02 23:50:18;;;;;;;11.05;7.10;;;;;;;;;;4944206;29;20031;-77
2022/02/02 23:55:16;;;;;;;9.80;5.55;;;;;;;;;;4958087;29;20489;-75
